Time;durP1;ratioP1;P1;durP2;ratioP2;P2;SDS_P1;SDS_P2;PMS_P1;PMS_P2;Temp;Humidity;BMP_temperature;BMP_pressure;BME280_temperature;BME280_humidity;BME280_pressure;Samples;Min_cycle;Max_cycle;Signal;HPM_P1;HPM_P2
2022/06/26 00:01:23;;;;;;;5.60;2.65;;;17.20;99.90;;;;;;5083831;28;20148;-88
2022/06/26 00:04:10;;;;;;;3.53;2.05;;;17.40;99.90;;;;;;5082590;28;20106;-90
2022/06/26 00:07:00;;;;;;;6.00;2.55;;;17.60;99.90;;;;;;5077674;28;20052;-90
2022/06/26 00:09:50;;;;;;;3.65;1.90;;;17.70;99.90;;;;;;5072294;28;20056;-92
2022/06/26 00:12:42;;;;;;;1.67;1.55;;;17.90;99.90;;;;;;5073818;28;20074;-91
2022/06/26 00:15:29;;;;;;;5.27;1.93;;;18.10;99.90;;;;;;5051117;28;20056;-92
2022/06/26 00:18:16;;;;;;;2.30;1.20;;;18.30;99.90;;;;;;5077033;28;20448;-89
2022/06/26 00:21:05;;;;;;;4.22;1.40;;;18.60;99.90;;;;;;5055176;28;20128;-89
2022/06/26 00:23:54;;;;;;;1.85;1.00;;;18.80;99.90;;;;;;5071345;28;20044;-91
2022/06/26 00:26:42;;;;;;;3.33;1.38;;;18.80;99.90;;;;;;5072645;28;20051;-92
2022/06/26 00:29:30;;;;;;;3.53;1.27;;;18.60;99.90;;;;;;5065831;28;20117;-94
2022/06/26 00:32:19;;;;;;;2.78;1.20;;;18.60;99.90;;;;;;5074998;28;20041;-92
2022/06/26 00:35:08;;;;;;;5.95;1.50;;;18.50;99.90;;;;;;5085538;28;20059;-92
2022/06/26 00:37:55;;;;;;;3.35;1.70;;;18.50;99.90;;;;;;5058527;28;20079;-92
2022/06/26 00:40:43;;;;;;;1.75;1.55;;;18.50;99.90;;;;;;5075542;28;20213;-92
2022/06/26 00:43:30;;;;;;;1.63;1.52;;;18.50;99.90;;;;;;5071379;28;20048;-91
2022/06/26 00:46:20;;;;;;;3.97;1.67;;;18.40;99.90;;;;;;5060898;28;20171;-91
2022/06/26 00:49:07;;;;;;;3.88;1.55;;;18.40;99.90;;;;;;5060081;28;20055;-91
2022/06/26 00:51:58;;;;;;;1.83;1.52;;;18.30;99.90;;;;;;5051257;28;20131;-91
2022/06/26 00:54:46;;;;;;;1.60;1.50;;;18.30;99.90;;;;;;5083423;28;20102;-92
2022/06/26 00:57:35;;;;;;;3.05;1.48;;;18.30;99.90;;;;;;5079990;28;20053;-92
2022/06/26 01:00:23;;;;;;;1.63;1.50;;;18.20;99.90;;;;;;5070211;28;20385;-91
2022/06/26 01:03:10;;;;;;;2.10;1.92;;;18.30;99.90;;;;;;5070708;28;20117;-91
2022/06/26 01:05:58;;;;;;;3.95;1.77;;;18.20;99.90;;;;;;5060565;28;20077;-91
2022/06/26 01:08:46;;;;;;;3.35;1.75;;;18.20;99.90;;;;;;5083242;28;20049;-90
2022/06/26 01:11:33;;;;;;;1.77;1.55;;;18.20;99.90;;;;;;5071673;28;20468;-90
2022/06/26 01:14:21;;;;;;;4.07;1.80;;;18.10;99.90;;;;;;5082044;28;20049;-93
2022/06/26 01:17:12;;;;;;;4.07;1.90;;;18.00;99.90;;;;;;5086786;28;20101;-90
2022/06/26 01:19:59;;;;;;;1.75;1.45;;;18.00;99.90;;;;;;5081738;28;20112;-91
2022/06/26 01:22:57;;;;;;;1.95;1.58;;;17.90;99.90;;;;;;5069606;28;20110;-93
2022/06/26 01:25:46;;;;;;;1.95;1.60;;;17.70;99.90;;;;;;5074101;28;20056;-91
2022/06/26 01:28:36;;;;;;;5.20;1.75;;;17.60;99.90;;;;;;5089056;28;20133;-91
2022/06/26 01:31:37;;;;;;;7.85;2.00;;;17.60;99.90;;;;;;5087492;28;20096;-92
2022/06/26 01:34:25;;;;;;;3.30;2.20;;;17.50;99.90;;;;;;5070016;28;20047;-95
2022/06/26 01:37:15;;;;;;;11.88;4.05;;;17.50;99.90;;;;;;5074611;28;20052;-91
2022/06/26 01:40:02;;;;;;;2.28;1.80;;;17.40;99.90;;;;;;5090756;28;20099;-93
2022/06/26 01:42:49;;;;;;;3.53;1.90;;;17.50;99.90;;;;;;5087026;28;20052;-92
2022/06/26 01:45:45;;;;;;;2.33;2.10;;;17.40;99.90;;;;;;5085224;28;20067;-91
2022/06/26 01:48:35;;;;;;;2.38;2.17;;;17.40;99.90;;;;;;5086795;28;20048;-92
2022/06/26 01:51:23;;;;;;;3.45;2.10;;;17.40;99.90;;;;;;5089430;28;20047;-92
2022/06/26 01:54:14;;;;;;;2.25;1.80;;;17.40;99.90;;;;;;5084621;28;20040;-92
2022/06/26 01:57:01;;;;;;;3.30;2.10;;;17.30;99.90;;;;;;5086005;28;20098;-93
2022/06/26 01:59:51;;;;;;;1.90;1.80;;;17.30;99.90;;;;;;5081372;28;20052;-92
2022/06/26 02:02:39;;;;;;;2.53;1.90;;;17.20;99.90;;;;;;5087743;28;20052;-92
2022/06/26 02:05:35;;;;;;;2.38;2.00;;;17.20;99.90;;;;;;5085726;28;20469;-93
2022/06/26 02:08:25;;;;;;;2.60;2.40;;;17.20;99.90;;;;;;5082542;28;20044;-91
2022/06/26 02:14:42;;;;;;;;;;;;;;;;;;;;;
2022/06/26 02:17:32;;;;;;;3.45;2.10;;;17.10;99.90;;;;;;5084089;28;20044;-93
2022/06/26 02:20:23;;;;;;;3.92;2.50;;;17.00;99.90;;;;;;5079994;28;20090;-94
2022/06/26 02:23:22;;;;;;;2.63;2.42;;;16.90;99.90;;;;;;5082495;28;20128;-93
2022/06/26 02:26:32;;;;;;;2.60;2.40;;;16.80;99.90;;;;;;5083201;28;20060;-93
2022/06/26 02:32:59;;;;;;;;;;;;;;;;;;;;;
2022/06/26 02:35:59;;;;;;;10.15;2.50;;;16.50;99.90;;;;;;5081001;28;20051;-93
2022/06/26 02:38:56;;;;;;;3.63;2.65;;;16.50;99.90;;;;;;5086822;28;20109;-94
2022/06/26 02:41:57;;;;;;;6.72;2.78;;;16.60;99.90;;;;;;5086096;28;20052;-95
2022/06/26 02:44:44;;;;;;;3.78;2.80;;;16.70;99.90;;;;;;5079203;28;20454;-94
2022/06/26 02:47:33;;;;;;;5.70;2.60;;;16.70;99.90;;;;;;5081831;28;20086;-96
2022/06/26 02:54:07;;;;;;;4.20;3.33;;;16.60;99.90;;;;;;5007374;28;20081;-93
2022/06/26 02:57:33;;;;;;;3.92;3.22;;;16.50;99.90;;;;;;5004467;28;20054;-93
2022/06/26 03:01:04;;;;;;;;;;;;;;;;;;;;;
2022/06/26 03:04:15;;;;;;;5.93;3.08;;;16.30;99.90;;;;;;4922753;29;20067;-94
2022/06/26 03:07:43;;;;;;;3.78;3.00;;;16.30;99.90;;;;;;4904254;29;20056;-94
2022/06/26 03:10:39;;;;;;;5.05;3.05;;;16.30;99.90;;;;;;4954558;28;20071;-90
2022/06/26 03:14:08;;;;;;;4.13;2.90;;;16.20;99.90;;;;;;4974773;28;20042;-94
2022/06/26 03:17:28;;;;;;;4.20;2.90;;;16.10;99.90;;;;;;4973377;28;20057;-94
2022/06/26 03:20:34;;;;;;;4.18;3.28;;;16.00;99.90;;;;;;5002065;28;20141;-93
2022/06/26 03:24:00;;;;;;;6.40;3.10;;;15.90;99.90;;;;;;4999317;28;20047;-92
2022/06/26 03:26:34;;;;;;;5.88;3.38;;;15.90;99.90;;;;;;5001283;28;20058;-95
2022/06/26 03:29:22;;;;;;;5.63;3.10;;;15.90;99.90;;;;;;4990478;28;20058;-92
2022/06/26 03:32:13;;;;;;;5.50;3.50;;;15.90;99.90;;;;;;5000698;28;20050;-92
2022/06/26 03:35:15;;;;;;;5.22;3.90;;;15.80;99.90;;;;;;5040988;28;20067;-93
2022/06/26 03:38:16;;;;;;;;;;;;;;;;;;;;;
2022/06/26 03:41:36;;;;;;;;;;;;;;;;;;;;;
2022/06/26 03:44:59;;;;;;;6.25;3.33;;;15.50;99.90;;;;;;5082347;28;20144;-95
2022/06/26 03:48:05;;;;;;;7.78;3.67;;;15.50;99.90;;;;;;5071309;28;20082;-93
2022/06/26 03:51:12;;;;;;;5.30;3.25;;;15.50;99.90;;;;;;5091867;28;20121;-93
2022/06/26 03:54:35;;;;;;;;;;;;;;;;;;;;;
2022/06/26 03:57:51;;;;;;;5.38;3.70;;;15.40;99.90;;;;;;5012658;28;20133;-94
2022/06/26 04:05:31;;;;;;;5.80;4.20;;;15.40;99.90;;;;;;5023417;28;20077;-92
2022/06/26 04:08:32;;;;;;;6.85;3.90;;;15.40;99.90;;;;;;5023312;28;20395;-94
2022/06/26 04:11:22;;;;;;;6.03;3.80;;;15.50;99.90;;;;;;5020741;28;20120;-92
2022/06/26 04:14:17;;;;;;;5.45;4.00;;;15.60;99.90;;;;;;5063716;28;20045;-93
2022/06/26 04:17:15;;;;;;;7.22;4.00;;;15.70;99.90;;;;;;5070660;28;20079;-94
2022/06/26 04:20:11;;;;;;;;;;;15.60;99.90;;;;;;5079565;28;20052;-91
2022/06/26 04:23:10;;;;;;;8.50;4.15;;;15.60;99.90;;;;;;5079570;28;19920;-92
2022/06/26 04:26:09;;;;;;;5.07;4.05;;;15.60;99.90;;;;;;5070172;28;20108;-93
2022/06/26 04:29:25;;;;;;;5.60;4.80;;;15.60;99.90;;;;;;5064046;28;20044;-92
2022/06/26 04:32:32;;;;;;;5.35;4.35;;;15.60;99.90;;;;;;5074716;28;20044;-92
2022/06/26 04:35:25;;;;;;;6.85;4.40;;;15.70;99.90;;;;;;5077087;28;20119;-93
2022/06/26 04:38:29;;;;;;;7.53;3.78;;;15.70;99.90;;;;;;5084284;28;20041;-93
2022/06/26 04:41:39;;;;;;;8.10;3.80;;;15.70;99.90;;;;;;5078959;28;20053;-89
2022/06/26 04:44:27;;;;;;;5.38;3.85;;;15.80;99.90;;;;;;5084420;28;20064;-92
2022/06/26 04:47:21;;;;;;;3.75;3.20;;;15.90;99.90;;;;;;5059498;28;20044;-93
2022/06/26 04:50:12;;;;;;;5.95;3.47;;;16.00;99.90;;;;;;5068274;28;20041;-93
2022/06/26 04:53:03;;;;;;;6.97;3.47;;;16.10;99.90;;;;;;5061980;28;20063;-93
2022/06/26 04:55:50;;;;;;;6.20;3.17;;;16.20;99.90;;;;;;5080144;28;20094;-93
2022/06/26 04:58:40;;;;;;;7.40;3.40;;;16.30;99.90;;;;;;5083194;28;20072;-92
2022/06/26 05:01:43;;;;;;;4.43;3.25;;;16.30;99.90;;;;;;5076885;28;20064;-94
2022/06/26 05:04:35;;;;;;;3.53;3.15;;;16.40;99.90;;;;;;5072983;28;20413;-94
2022/06/26 05:07:24;;;;;;;4.38;3.05;;;16.40;99.90;;;;;;5081962;28;20045;-93
2022/06/26 05:10:12;;;;;;;3.63;3.20;;;16.40;99.90;;;;;;5094635;28;20040;-94
2022/06/26 05:13:21;;;;;;;5.88;3.10;;;16.40;99.90;;;;;;5073780;28;20041;-92
2022/06/26 05:16:11;;;;;;;6.18;3.13;;;16.50;99.90;;;;;;5083377;28;20055;-92
2022/06/26 05:18:59;;;;;;;4.03;2.53;;;16.50;99.90;;;;;;5080041;28;20056;-92
2022/06/26 05:21:47;;;;;;;3.15;2.80;;;16.50;99.90;;;;;;5086083;28;20048;-92
2022/06/26 05:24:35;;;;;;;3.05;2.83;;;16.60;99.90;;;;;;5047224;28;20212;-93
2022/06/26 05:27:30;;;;;;;2.85;2.55;;;16.70;99.90;;;;;;5075092;28;20162;-95
2022/06/26 05:30:22;;;;;;;4.80;2.65;;;16.80;99.90;;;;;;5073134;28;20045;-94
2022/06/26 05:33:12;;;;;;;3.47;2.75;;;16.90;99.90;;;;;;5063570;28;20106;-93
2022/06/26 05:36:11;;;;;;;2.75;2.40;;;17.00;99.90;;;;;;5077266;28;20059;-94
2022/06/26 05:39:02;;;;;;;3.83;2.55;;;17.10;99.90;;;;;;5068396;28;20064;-94
2022/06/26 05:41:56;;;;;;;3.00;2.70;;;17.10;99.90;;;;;;5075574;28;20120;-94
2022/06/26 05:44:48;;;;;;;4.03;2.50;;;17.10;99.90;;;;;;5070882;28;20045;-91
2022/06/26 05:47:38;;;;;;;6.10;2.60;;;17.10;99.90;;;;;;5075576;28;20134;-93
2022/06/26 05:50:47;;;;;;;4.40;2.60;;;17.20;99.90;;;;;;5071664;28;20055;-92
2022/06/26 05:53:38;;;;;;;2.67;2.17;;;17.40;99.90;;;;;;5076936;28;20464;-92
2022/06/26 05:56:34;;;;;;;4.72;2.60;;;17.50;99.90;;;;;;5060480;28;20055;-94
2022/06/26 05:59:24;;;;;;;5.25;2.40;;;17.60;99.90;;;;;;5079058;28;20044;-94
2022/06/26 06:02:25;;;;;;;3.65;2.10;;;17.60;99.90;;;;;;5083686;28;20051;-93
2022/06/26 06:06:06;;;;;;;;;;;;;;;;;;;;;
2022/06/26 06:09:32;;;;;;;;;;;;;;;;;;;;;
2022/06/26 06:12:50;;;;;;;3.50;2.08;;;18.00;99.90;;;;;;4933383;29;20068;-94
2022/06/26 06:15:59;;;;;;;4.85;2.25;;;18.10;99.90;;;;;;4915333;29;20509;-90
2022/06/26 06:18:48;;;;;;;2.10;1.90;;;18.30;99.90;;;;;;4917259;29;20076;-91
2022/06/26 06:21:35;;;;;;;2.78;2.13;;;18.40;99.90;;;;;;4922835;29;20060;-90
2022/06/26 06:24:22;;;;;;;4.65;2.00;;;18.60;99.90;;;;;;4992404;28;20053;-90
2022/06/26 06:27:12;;;;;;;2.17;1.77;;;18.80;99.90;;;;;;4996117;28;20058;-91
2022/06/26 06:29:59;;;;;;;1.75;1.60;;;19.10;99.90;;;;;;5066010;28;20040;-92
2022/06/26 06:32:47;;;;;;;1.70;1.60;;;19.40;99.90;;;;;;5077848;28;20109;-91
2022/06/26 06:35:36;;;;;;;1.58;1.48;;;19.40;99.90;;;;;;5068651;28;20048;-92
2022/06/26 06:38:24;;;;;;;2.67;1.63;;;19.50;99.90;;;;;;5082601;28;20071;-89
2022/06/26 06:41:11;;;;;;;2.33;2.08;;;19.70;99.90;;;;;;5076846;28;20045;-89
2022/06/26 06:44:00;;;;;;;1.50;1.40;;;19.80;99.90;;;;;;5077846;28;20049;-90
2022/06/26 06:46:49;;;;;;;3.75;2.08;;;20.00;99.90;;;;;;5074408;28;20048;-91
2022/06/26 06:49:36;;;;;;;3.00;1.63;;;20.40;99.90;;;;;;5077780;28;20465;-89
2022/06/26 06:52:23;;;;;;;2.80;2.03;;;20.80;99.90;;;;;;5080240;28;20060;-89
2022/06/26 06:55:10;;;;;;;2.47;1.50;;;21.10;99.90;;;;;;5077393;28;20048;-90
2022/06/26 06:58:02;;;;;;;1.88;1.60;;;21.20;99.90;;;;;;5064627;28;20046;-89
2022/06/26 07:12:55;;;;;;;1.88;1.20;;;22.20;99.90;;;;;;5072817;28;20028;-87
2022/06/26 07:15:44;;;;;;;2.80;1.40;;;22.50;99.90;;;;;;5056829;28;20056;-88
2022/06/26 07:18:32;;;;;;;1.88;0.95;;;23.00;99.90;;;;;;5065390;28;20048;-86
2022/06/26 07:21:19;;;;;;;1.30;1.20;;;23.30;99.90;;;;;;5072663;28;20068;-88
2022/06/26 07:24:08;;;;;;;2.42;1.02;;;23.40;99.90;;;;;;5075773;28;20055;-91
2022/06/26 07:26:55;;;;;;;1.20;1.10;;;24.10;99.90;;;;;;5089572;28;20044;-87
2022/06/26 07:29:43;;;;;;;0.93;0.90;;;24.70;99.90;;;;;;5086877;28;20124;-86
2022/06/26 07:32:33;;;;;;;1.27;0.93;;;25.00;99.90;;;;;;5080434;28;20052;-86
2022/06/26 07:35:25;;;;;;;0.80;0.80;;;25.10;99.90;;;;;;5089340;28;20052;-88
2022/06/26 07:38:21;;;;;;;0.95;0.75;;;25.40;99.80;;;;;;5084062;28;20087;-90
2022/06/26 07:41:08;;;;;;;1.55;0.80;;;25.70;98.50;;;;;;5085451;28;20058;-88
2022/06/26 07:43:55;;;;;;;1.20;1.00;;;25.50;96.10;;;;;;5077871;28;20048;-90
2022/06/26 07:46:43;;;;;;;1.17;0.80;;;25.50;93.60;;;;;;5067129;28;20169;-90
2022/06/26 07:49:31;;;;;;;0.80;0.80;;;25.80;96.00;;;;;;5074208;28;20119;-89
2022/06/26 07:52:26;;;;;;;1.45;0.70;;;26.40;90.90;;;;;;5060537;28;20454;-89
2022/06/26 07:55:16;;;;;;;0.95;0.82;;;26.60;94.50;;;;;;5072750;28;20060;-86
2022/06/26 07:58:04;;;;;;;2.63;0.95;;;26.70;91.90;;;;;;5061343;28;20074;-86
2022/06/26 08:00:53;;;;;;;1.30;0.63;;;26.60;92.40;;;;;;5064819;28;20055;-89
2022/06/26 08:04:00;;;;;;;1.25;0.93;;;26.40;90.20;;;;;;5059004;28;20036;-89
2022/06/26 08:06:50;;;;;;;0.63;0.60;;;26.70;90.30;;;;;;5060361;28;20464;-86
2022/06/26 08:10:12;;;;;;;1.25;0.80;;;26.40;87.50;;;;;;5063580;28;20052;-87
2022/06/26 08:12:59;;;;;;;1.23;0.70;;;26.40;90.60;;;;;;5051542;28;20041;-87
2022/06/26 08:15:47;;;;;;;2.47;0.80;;;26.80;85.00;;;;;;5063327;28;20044;-85
2022/06/26 08:18:34;;;;;;;2.80;0.88;;;26.70;82.80;;;;;;5067676;28;20098;-87
2022/06/26 08:24:31;;;;;;;1.05;0.70;;;27.00;85.00;;;;;;5077619;28;20040;-88
2022/06/26 08:27:18;;;;;;;0.73;0.60;;;27.40;83.60;;;;;;5075914;28;20040;-89
2022/06/26 08:30:09;;;;;;;1.27;0.60;;;27.50;83.90;;;;;;5072103;28;20117;-88
2022/06/26 08:33:01;;;;;;;1.20;0.80;;;27.90;84.90;;;;;;5066366;28;20040;-89
2022/06/26 08:35:51;;;;;;;0.55;0.55;;;28.80;74.60;;;;;;5061295;28;20083;-87
2022/06/26 08:38:39;;;;;;;1.35;0.80;;;28.50;80.00;;;;;;5073124;28;20095;-89
2022/06/26 08:41:28;;;;;;;3.55;1.00;;;28.20;77.80;;;;;;5072856;28;20051;-86
2022/06/26 08:44:15;;;;;;;2.55;0.90;;;28.30;77.80;;;;;;5073060;28;20130;-86
2022/06/26 08:47:03;;;;;;;1.33;0.70;;;28.70;78.70;;;;;;5073746;28;20057;-90
2022/06/26 08:49:52;;;;;;;1.55;0.90;;;29.40;73.40;;;;;;5057314;28;20197;-90
2022/06/26 08:52:43;;;;;;;1.67;0.93;;;29.80;74.90;;;;;;5069161;28;20056;-87
2022/06/26 08:55:30;;;;;;;1.05;0.63;;;30.00;71.80;;;;;;5064389;28;20174;-87
2022/06/26 08:58:17;;;;;;;1.83;0.50;;;29.80;71.80;;;;;;5075385;28;20076;-89
2022/06/26 09:01:07;;;;;;;0.70;0.70;;;30.10;70.90;;;;;;5074815;28;20060;-87
2022/06/26 09:03:55;;;;;;;1.92;0.70;;;30.30;69.30;;;;;;5066992;28;20059;-89
2022/06/26 09:06:44;;;;;;;3.13;0.70;;;30.10;67.90;;;;;;5059841;28;20121;-89
2022/06/26 09:09:38;;;;;;;0.80;0.60;;;30.40;66.90;;;;;;5079745;28;20123;-87
2022/06/26 09:12:36;;;;;;;0.95;0.80;;;30.30;63.80;;;;;;5061100;28;20037;-89
2022/06/26 09:15:25;;;;;;;2.42;0.70;;;29.90;65.40;;;;;;5077470;28;20036;-91
2022/06/26 09:18:16;;;;;;;1.38;0.65;;;30.00;63.90;;;;;;5083856;28;20052;-88
2022/06/26 09:21:07;;;;;;;0.82;0.70;;;30.70;64.40;;;;;;5081251;28;20098;-90
2022/06/26 09:23:57;;;;;;;2.13;0.63;;;31.70;59.60;;;;;;5065035;28;20049;-89
2022/06/26 09:26:45;;;;;;;1.38;0.60;;;32.00;60.80;;;;;;5060378;28;20048;-89
2022/06/26 09:29:33;;;;;;;0.55;0.55;;;31.40;58.00;;;;;;5069895;28;20048;-90
2022/06/26 09:32:23;;;;;;;1.92;0.70;;;31.20;53.80;;;;;;5061866;28;20041;-89
2022/06/26 09:35:20;;;;;;;1.30;0.75;;;30.50;57.70;;;;;;5078359;28;20426;-87
2022/06/26 09:38:09;;;;;;;2.40;0.70;;;30.60;60.00;;;;;;5076258;28;20040;-91
2022/06/26 09:40:58;;;;;;;1.25;0.80;;;30.80;60.60;;;;;;5063832;28;20051;-86
2022/06/26 09:43:45;;;;;;;0.70;0.70;;;30.70;59.00;;;;;;5079657;28;20162;-88
2022/06/26 09:46:33;;;;;;;1.65;0.70;;;30.70;60.40;;;;;;5069172;28;20052;-89
2022/06/26 09:49:21;;;;;;;2.10;0.77;;;30.90;62.90;;;;;;5078133;28;20048;-89
2022/06/26 09:52:08;;;;;;;1.20;0.90;;;30.70;60.70;;;;;;5077763;28;20059;-90
2022/06/26 09:55:00;;;;;;;2.15;0.80;;;29.60;60.40;;;;;;5064555;28;20331;-91
2022/06/26 09:57:54;;;;;;;2.15;0.70;;;29.80;63.90;;;;;;5076058;28;20512;-88
2022/06/26 10:07:02;;;;;;;2.00;1.02;;;32.20;59.20;;;;;;5067176;28;20055;-90
2022/06/26 10:09:50;;;;;;;1.02;0.80;;;32.20;57.20;;;;;;5075378;28;20036;-89
2022/06/26 10:12:40;;;;;;;0.93;0.73;;;31.50;59.50;;;;;;5071438;28;20048;-91
2022/06/26 10:15:40;;;;;;;0.95;0.60;;;31.90;60.70;;;;;;5080671;28;20117;-91
2022/06/26 10:18:39;;;;;;;0.75;0.70;;;32.10;57.10;;;;;;5078895;28;20146;-92
2022/06/26 10:21:33;;;;;;;2.45;0.70;;;32.10;57.60;;;;;;5059890;28;20044;-92
2022/06/26 10:24:21;;;;;;;2.40;0.77;;;32.40;54.00;;;;;;5080801;28;20059;-93
2022/06/26 10:27:13;;;;;;;0.90;0.70;;;33.00;55.90;;;;;;5082668;28;20134;-91
2022/06/26 10:30:14;;;;;;;0.90;0.60;;;32.90;55.40;;;;;;5079329;28;20139;-90
2022/06/26 10:33:21;;;;;;;0.60;0.60;;;32.50;56.00;;;;;;5073920;28;20055;-91
2022/06/26 10:36:20;;;;;;;0.77;0.77;;;31.40;55.70;;;;;;5070630;28;20095;-92
2022/06/26 10:39:07;;;;;;;1.33;0.70;;;30.20;59.90;;;;;;5070339;28;20060;-90
2022/06/26 10:45:43;;;;;;;0.88;0.60;;;31.80;58.50;;;;;;5073411;28;20105;-92
2022/06/26 10:48:33;;;;;;;1.50;1.13;;;32.00;58.00;;;;;;5046565;28;20331;-93
2022/06/26 10:51:29;;;;;;;0.50;0.50;;;32.30;55.40;;;;;;5050960;28;20052;-91
2022/06/26 10:54:23;;;;;;;2.35;0.65;;;31.90;55.10;;;;;;5062431;28;20045;-89
2022/06/26 10:57:29;;;;;;;1.60;0.60;;;31.20;55.20;;;;;;5060128;28;20044;-92
2022/06/26 11:00:17;;;;;;;1.95;0.60;;;30.80;57.50;;;;;;5065887;28;20048;-91
2022/06/26 11:03:18;;;;;;;3.55;0.60;;;30.40;60.80;;;;;;5056994;28;20123;-90
2022/06/26 11:06:07;;;;;;;0.68;0.43;;;30.20;59.80;;;;;;5061023;28;20070;-92
2022/06/26 11:08:56;;;;;;;2.60;1.27;;;30.20;61.50;;;;;;5074781;28;20044;-90
2022/06/26 11:11:49;;;;;;;0.60;0.60;;;30.50;60.50;;;;;;5072290;28;20083;-90
2022/06/26 11:14:36;;;;;;;0.93;0.80;;;29.80;59.20;;;;;;5054360;28;20063;-86
2022/06/26 11:17:27;;;;;;;1.52;0.80;;;29.90;64.90;;;;;;5064422;28;20064;-87
2022/06/26 11:23:21;;;;;;;2.13;0.50;;;31.20;59.30;;;;;;5073460;28;20044;-89
2022/06/26 11:26:13;;;;;;;0.70;0.70;;;31.40;59.10;;;;;;5082634;28;20161;-89
2022/06/26 11:29:08;;;;;;;0.60;0.60;;;31.90;59.00;;;;;;5059933;28;20060;-91
2022/06/26 11:31:59;;;;;;;0.55;0.50;;;32.90;56.10;;;;;;5073298;28;20041;-93
2022/06/26 11:34:51;;;;;;;1.13;0.70;;;32.70;52.30;;;;;;5077408;28;20378;-88
2022/06/26 11:37:47;;;;;;;;;;;33.00;56.50;;;;;;5060541;28;20071;-90
2022/06/26 11:40:35;;;;;;;2.65;0.57;;;34.10;54.20;;;;;;5063963;28;19946;-91
2022/06/26 11:43:22;;;;;;;0.90;0.57;;;33.70;54.20;;;;;;5074167;28;20048;-92
2022/06/26 11:46:12;;;;;;;0.82;0.60;;;33.50;53.50;;;;;;5078899;28;20048;-87
2022/06/26 11:48:59;;;;;;;1.35;0.50;;;32.90;53.50;;;;;;5079652;28;20053;-90
2022/06/26 11:51:57;;;;;;;2.42;0.70;;;32.80;53.80;;;;;;5072858;28;20044;-89
2022/06/26 11:54:45;;;;;;;2.72;0.55;;;33.20;55.30;;;;;;5082430;28;20036;-89
2022/06/26 11:57:35;;;;;;;1.17;0.60;;;33.50;53.70;;;;;;5076211;28;20044;-89
2022/06/26 12:00:23;;;;;;;1.95;0.70;;;33.40;54.60;;;;;;5077536;28;20044;-87
2022/06/26 12:03:13;;;;;;;0.77;0.52;;;33.60;53.40;;;;;;5080291;28;20063;-87
2022/06/26 12:06:02;;;;;;;1.00;0.67;;;33.60;52.40;;;;;;5059446;28;20036;-89
2022/06/26 12:08:49;;;;;;;1.02;0.70;;;33.70;51.80;;;;;;5080516;28;20746;-88
2022/06/26 12:11:44;;;;;;;0.75;0.55;;;33.90;51.90;;;;;;5076429;28;20056;-90
2022/06/26 12:14:33;;;;;;;1.13;0.60;;;34.20;48.90;;;;;;5067064;28;20060;-90
2022/06/26 12:17:25;;;;;;;0.98;0.40;;;34.40;48.30;;;;;;5085413;28;20047;-87
2022/06/26 12:20:14;;;;;;;0.77;0.57;;;34.30;51.30;;;;;;5059609;28;20043;-85
2022/06/26 12:23:05;;;;;;;0.63;0.50;;;34.50;51.70;;;;;;5087575;28;20032;-86
2022/06/26 12:29:47;;;;;;;0.55;0.55;;;34.90;50.30;;;;;;5027362;28;20120;-89
2022/06/26 12:32:56;;;;;;;1.10;0.50;;;36.00;48.00;;;;;;5008040;28;20175;-89
2022/06/26 12:35:49;;;;;;;0.40;0.40;;;35.70;48.60;;;;;;5006495;28;20121;-90
2022/06/26 12:38:37;;;;;;;3.60;0.70;;;36.00;44.70;;;;;;5018662;28;20054;-90
2022/06/26 12:41:25;;;;;;;1.25;0.50;;;36.00;46.20;;;;;;5073722;28;20661;-93
2022/06/26 12:44:12;;;;;;;1.25;0.50;;;35.50;48.30;;;;;;5073864;28;20052;-88
2022/06/26 12:46:59;;;;;;;0.50;0.50;;;35.40;47.40;;;;;;5060481;28;20048;-85
2022/06/26 12:49:46;;;;;;;0.73;0.47;;;34.60;48.00;;;;;;5083282;28;20048;-87
2022/06/26 12:52:34;;;;;;;0.73;0.70;;;33.30;51.50;;;;;;5099474;28;20048;-91
2022/06/26 12:55:24;;;;;;;1.45;0.60;;;34.30;48.70;;;;;;5084131;28;20056;-91
2022/06/26 12:58:11;;;;;;;0.77;0.60;;;34.80;49.50;;;;;;5090461;28;20060;-87
2022/06/26 13:00:59;;;;;;;0.93;0.50;;;34.30;49.00;;;;;;5091459;28;20045;-88
2022/06/26 13:03:46;;;;;;;3.50;0.60;;;34.30;49.50;;;;;;5096777;28;20108;-89
2022/06/26 13:06:33;;;;;;;0.50;0.50;;;33.90;50.20;;;;;;5106014;28;20052;-89
2022/06/26 13:09:24;;;;;;;0.77;0.77;;;34.00;50.70;;;;;;5093282;28;20048;-90
2022/06/26 13:12:13;;;;;;;1.98;0.82;;;34.90;50.20;;;;;;5087773;28;20056;-91
2022/06/26 13:15:07;;;;;;;0.60;0.57;;;35.40;46.50;;;;;;5075063;28;20043;-88
2022/06/26 13:17:55;;;;;;;0.80;0.50;;;34.80;48.20;;;;;;5085189;28;20114;-91
2022/06/26 13:20:44;;;;;;;0.75;0.60;;;34.90;50.10;;;;;;5068902;28;20044;-92
2022/06/26 13:23:31;;;;;;;1.33;0.80;;;35.10;51.70;;;;;;5088243;28;20055;-94
2022/06/26 13:26:21;;;;;;;5.45;0.70;;;34.90;47.80;;;;;;5071806;28;20051;-91
2022/06/26 13:29:09;;;;;;;0.90;0.60;;;34.80;48.50;;;;;;5076889;28;20102;-89
2022/06/26 13:31:57;;;;;;;2.05;0.82;;;34.00;48.60;;;;;;5085165;28;20049;-91
2022/06/26 13:34:44;;;;;;;1.05;0.50;;;34.00;49.50;;;;;;5068731;28;20045;-91
2022/06/26 13:37:34;;;;;;;0.70;0.60;;;35.10;50.30;;;;;;5066848;28;20045;-87
2022/06/26 13:40:22;;;;;;;0.75;0.52;;;34.70;48.00;;;;;;5082089;28;20047;-87
2022/06/26 13:43:13;;;;;;;0.63;0.60;;;33.40;50.00;;;;;;5071705;28;20182;-93
2022/06/26 13:46:02;;;;;;;2.25;0.68;;;34.20;51.80;;;;;;5077311;28;20047;-89
2022/06/26 13:48:51;;;;;;;1.25;0.60;;;33.90;50.80;;;;;;5060146;28;20070;-86
2022/06/26 13:51:41;;;;;;;1.73;0.55;;;34.20;47.90;;;;;;5072876;28;20036;-91
2022/06/26 13:54:29;;;;;;;1.63;0.68;;;34.50;49.30;;;;;;5083609;28;20044;-89
2022/06/26 13:57:16;;;;;;;1.95;0.70;;;34.50;49.50;;;;;;5089977;28;20066;-87
2022/06/26 14:00:05;;;;;;;1.95;0.75;;;34.20;48.30;;;;;;5072010;28;20064;-87
2022/06/26 14:02:52;;;;;;;0.82;0.60;;;34.40;50.10;;;;;;5095453;28;20055;-92
2022/06/26 14:05:40;;;;;;;0.75;0.60;;;34.60;47.80;;;;;;5091845;28;20040;-88
2022/06/26 14:17:59;;;;;;;;;;;34.20;48.20;;;;;;5910128;22;20015;-92
2022/06/26 14:20:47;;;;;;;2.17;0.57;;;34.90;49.90;;;;;;5074146;28;19930;-90
2022/06/26 14:26:40;;;;;;;0.88;0.60;;;34.60;47.50;;;;;;5086995;28;20049;-89
2022/06/26 14:29:29;;;;;;;0.60;0.50;;;34.60;48.80;;;;;;5074535;28;20445;-88
2022/06/26 14:32:19;;;;;;;1.42;0.70;;;34.50;49.40;;;;;;5057692;28;20044;-87
2022/06/26 14:35:07;;;;;;;2.83;0.50;;;34.40;50.00;;;;;;5076885;28;20493;-90
2022/06/26 14:37:57;;;;;;;2.75;0.50;;;34.80;50.40;;;;;;5073253;28;20446;-91
2022/06/26 14:40:46;;;;;;;1.15;0.65;;;34.20;49.40;;;;;;5075765;28;20044;-90
2022/06/26 14:43:34;;;;;;;1.95;0.73;;;34.20;49.70;;;;;;5072997;28;20322;-90
2022/06/26 14:46:24;;;;;;;2.40;0.63;;;34.30;48.90;;;;;;5074865;28;20048;-91
2022/06/26 14:49:11;;;;;;;0.70;0.52;;;33.60;50.60;;;;;;5071176;28;20052;-95
2022/06/26 14:52:01;;;;;;;0.98;0.60;;;33.90;51.10;;;;;;5075802;28;20048;-93
2022/06/26 14:54:50;;;;;;;1.27;0.50;;;34.40;50.00;;;;;;5063771;28;20051;-91
2022/06/26 14:57:38;;;;;;;2.67;0.57;;;34.70;49.90;;;;;;5070533;28;20047;-89
2022/06/26 15:00:25;;;;;;;0.52;0.52;;;34.70;49.00;;;;;;5069113;28;20052;-92
2022/06/26 15:03:13;;;;;;;1.20;0.55;;;34.60;48.50;;;;;;5072335;28;20052;-88
2022/06/26 15:06:01;;;;;;;0.95;0.68;;;34.40;48.30;;;;;;5076074;28;20051;-89
2022/06/26 15:08:48;;;;;;;1.58;0.60;;;33.90;49.70;;;;;;5076910;28;20052;-88
2022/06/26 15:11:36;;;;;;;0.70;0.70;;;33.10;49.70;;;;;;5075621;28;20041;-90
2022/06/26 15:14:24;;;;;;;0.95;0.73;;;33.10;52.00;;;;;;5060584;28;20044;-89
2022/06/26 15:17:13;;;;;;;2.10;0.80;;;33.60;50.20;;;;;;5070022;28;20044;-90
2022/06/26 15:20:02;;;;;;;0.70;0.60;;;34.00;50.20;;;;;;5060298;28;20105;-88
2022/06/26 15:22:54;;;;;;;1.02;0.73;;;33.70;51.30;;;;;;5053765;28;20470;-91
2022/06/26 15:25:41;;;;;;;1.92;0.60;;;33.30;50.60;;;;;;5059932;28;20472;-88
2022/06/26 15:28:29;;;;;;;1.67;1.05;;;32.70;51.70;;;;;;5070863;28;20158;-87
2022/06/26 15:31:18;;;;;;;0.85;0.60;;;32.10;52.00;;;;;;5064003;28;20055;-87
2022/06/26 15:34:05;;;;;;;0.57;0.57;;;32.30;52.60;;;;;;5066595;28;20044;-91
2022/06/26 15:36:53;;;;;;;0.70;0.70;;;32.30;52.10;;;;;;5078886;28;20059;-89
2022/06/26 15:39:40;;;;;;;2.05;0.68;;;32.10;52.10;;;;;;5071232;28;20040;-90
2022/06/26 15:42:33;;;;;;;1.23;0.82;;;32.30;51.70;;;;;;5069864;28;20045;-93
2022/06/26 15:45:21;;;;;;;1.13;0.80;;;32.20;53.10;;;;;;5067917;28;20044;-90
2022/06/26 15:48:11;;;;;;;1.20;0.70;;;32.10;52.20;;;;;;5071608;28;20426;-91
2022/06/26 15:50:59;;;;;;;1.10;0.70;;;32.40;54.00;;;;;;5069348;28;20040;-89
2022/06/26 15:53:47;;;;;;;1.67;0.82;;;32.20;53.10;;;;;;5071923;28;20176;-91
2022/06/26 15:56:36;;;;;;;1.85;0.93;;;32.10;53.70;;;;;;5067930;28;20044;-91
2022/06/26 15:59:26;;;;;;;2.17;0.80;;;31.90;53.10;;;;;;5051332;28;20041;-91
2022/06/26 16:02:16;;;;;;;1.45;0.95;;;32.00;53.90;;;;;;5072647;28;20044;-89
2022/06/26 16:05:04;;;;;;;1.65;0.75;;;31.60;55.70;;;;;;5070851;28;20132;-88
2022/06/26 16:07:53;;;;;;;0.70;0.70;;;31.30;54.00;;;;;;5076504;28;20096;-91
2022/06/26 16:10:40;;;;;;;1.00;0.90;;;31.00;55.00;;;;;;5059318;28;20048;-89